Time;durP1;ratioP1;P1;durP2;ratioP2;P2;SDS_P1;SDS_P2;PMS_P1;PMS_P2;Temp;Humidity;BMP_temperature;BMP_pressure;BME280_temperature;BME280_humidity;BME280_pressure;Samples;Min_cycle;Max_cycle;Signal;HPM_P1;HPM_P2
2023/04/30 00:01:54;;;;;;;9.35;3.83;;;8.20;99.90;;;;;;5075942;28;20063;-85
2023/04/30 00:04:20;;;;;;;9.10;3.80;;;8.20;99.90;;;;;;5070713;28;20047;-85
2023/04/30 00:06:45;;;;;;;10.27;3.70;;;8.20;99.90;;;;;;5055611;28;20040;-85
2023/04/30 00:09:11;;;;;;;10.05;3.20;;;8.20;99.90;;;;;;5075646;28;20043;-85
2023/04/30 00:11:37;;;;;;;10.00;3.97;;;8.10;99.90;;;;;;5056799;28;20040;-84
2023/04/30 00:14:02;;;;;;;11.02;3.88;;;8.10;99.90;;;;;;5057584;28;20047;-85
2023/04/30 00:16:28;;;;;;;9.10;3.80;;;8.10;99.90;;;;;;5075490;28;20404;-85
2023/04/30 00:18:54;;;;;;;8.23;3.33;;;8.00;99.90;;;;;;5055780;28;20043;-85
2023/04/30 00:21:19;;;;;;;10.43;3.67;;;8.00;99.90;;;;;;5055581;28;20044;-85
2023/04/30 00:23:45;;;;;;;9.32;3.60;;;8.00;99.90;;;;;;5062334;28;20071;-85
2023/04/30 00:26:10;;;;;;;6.20;2.45;;;7.90;99.90;;;;;;5075824;28;20170;-85
2023/04/30 00:28:36;;;;;;;7.97;2.63;;;7.80;99.90;;;;;;5073220;28;20405;-84
2023/04/30 00:31:02;;;;;;;6.22;2.40;;;7.70;99.90;;;;;;5055095;28;20032;-85
2023/04/30 00:33:27;;;;;;;5.05;1.80;;;7.70;99.90;;;;;;5055947;28;20036;-84
2023/04/30 00:35:53;;;;;;;6.43;2.70;;;7.70;99.90;;;;;;5055094;28;20043;-84
2023/04/30 00:38:18;;;;;;;7.10;2.83;;;7.60;99.90;;;;;;5056495;28;20048;-85
2023/04/30 00:40:45;;;;;;;6.72;2.30;;;7.60;99.90;;;;;;5066716;28;20054;-84
2023/04/30 00:43:11;;;;;;;7.93;3.47;;;7.50;99.90;;;;;;5076039;28;20447;-85
2023/04/30 00:45:36;;;;;;;10.70;3.95;;;7.50;99.90;;;;;;5048476;28;20040;-84
2023/04/30 00:48:02;;;;;;;9.60;3.90;;;7.50;99.90;;;;;;5054955;28;20043;-85
2023/04/30 00:50:28;;;;;;;5.97;2.50;;;7.50;99.90;;;;;;5058502;28;20032;-85
2023/04/30 00:52:54;;;;;;;9.95;3.25;;;7.50;99.90;;;;;;5059309;28;20097;-84
2023/04/30 00:55:20;;;;;;;11.50;3.65;;;7.40;99.90;;;;;;5055186;28;20041;-85
2023/04/30 00:57:46;;;;;;;7.68;3.25;;;7.40;99.90;;;;;;5038175;28;20036;-85
2023/04/30 01:00:12;;;;;;;11.45;4.45;;;7.40;99.90;;;;;;5038200;28;20036;-85
2023/04/30 01:02:38;;;;;;;13.02;4.63;;;7.40;99.90;;;;;;5038212;28;20076;-85
2023/04/30 01:05:05;;;;;;;11.27;3.95;;;7.40;99.90;;;;;;5036698;28;20117;-84
2023/04/30 01:07:31;;;;;;;10.20;4.30;;;7.40;99.90;;;;;;5058998;28;20535;-84
2023/04/30 01:09:57;;;;;;;12.20;4.88;;;7.40;99.90;;;;;;5058865;28;20041;-85
2023/04/30 01:12:36;;;;;;;8.90;4.03;;;7.40;99.90;;;;;;5055261;28;20789;-85
2023/04/30 01:15:22;;;;;;;9.75;4.40;;;7.50;99.90;;;;;;5054314;28;20544;-85
2023/04/30 01:18:02;;;;;;;11.50;4.85;;;7.50;99.90;;;;;;5038873;28;20055;-85
2023/04/30 01:20:29;;;;;;;9.77;3.28;;;7.40;99.90;;;;;;5070252;28;20036;-85
2023/04/30 01:23:21;;;;;;;6.78;2.38;;;7.40;99.90;;;;;;5058253;28;20040;-85
2023/04/30 01:25:55;;;;;;;6.50;2.40;;;7.30;99.90;;;;;;5074273;28;20063;-84
2023/04/30 01:28:23;;;;;;;7.00;2.63;;;7.20;99.90;;;;;;5074291;28;20382;-84
2023/04/30 01:30:50;;;;;;;7.80;2.15;;;7.20;99.90;;;;;;5070930;28;20036;-85
2023/04/30 01:33:15;;;;;;;4.40;1.80;;;7.10;99.90;;;;;;5053350;28;20040;-85
2023/04/30 01:35:53;;;;;;;5.68;1.70;;;7.00;99.90;;;;;;5037424;28;20037;-84
2023/04/30 01:38:56;;;;;;;3.80;1.60;;;6.90;99.90;;;;;;5046018;28;20400;-85
2023/04/30 01:41:40;;;;;;;5.20;1.40;;;6.90;99.90;;;;;;5053340;28;20068;-84
2023/04/30 01:44:39;;;;;;;5.22;1.80;;;6.80;99.90;;;;;;5045103;28;20386;-84
2023/04/30 01:47:17;;;;;;;5.90;1.90;;;6.80;99.90;;;;;;5037482;28;20055;-84
2023/04/30 01:49:57;;;;;;;5.13;2.10;;;6.70;99.90;;;;;;5045034;28;20044;-84
2023/04/30 01:52:37;;;;;;;6.13;2.60;;;6.70;99.90;;;;;;5053786;28;20044;-84
2023/04/30 01:55:24;;;;;;;6.25;2.35;;;6.60;99.90;;;;;;5050713;28;20497;-85
2023/04/30 01:58:02;;;;;;;3.50;1.50;;;6.60;99.90;;;;;;5073950;28;20048;-84
2023/04/30 02:00:32;;;;;;;3.92;1.50;;;6.50;99.90;;;;;;5072360;28;20040;-84
2023/04/30 02:02:58;;;;;;;6.00;1.80;;;6.50;99.90;;;;;;5057153;28;20044;-84
2023/04/30 02:05:23;;;;;;;5.57;1.95;;;6.50;99.90;;;;;;5066804;28;20094;-84
2023/04/30 02:07:51;;;;;;;7.70;2.88;;;6.50;99.90;;;;;;5069098;28;20531;-85
2023/04/30 02:10:20;;;;;;;6.88;2.85;;;6.40;99.90;;;;;;5071898;28;20055;-85
2023/04/30 02:12:45;;;;;;;7.65;2.90;;;6.40;99.90;;;;;;5073027;28;20441;-84
2023/04/30 02:15:11;;;;;;;9.75;2.70;;;6.40;99.90;;;;;;5056659;28;20596;-84
2023/04/30 02:17:37;;;;;;;7.78;3.00;;;6.40;99.90;;;;;;5042443;28;20390;-84
2023/04/30 02:20:03;;;;;;;7.85;2.90;;;6.40;99.90;;;;;;5036744;28;20094;-84
2023/04/30 02:22:29;;;;;;;9.65;3.72;;;6.40;99.90;;;;;;5052829;28;20387;-85
2023/04/30 02:24:56;;;;;;;8.43;3.33;;;6.40;99.90;;;;;;5053365;28;20505;-85
2023/04/30 02:27:24;;;;;;;7.88;3.22;;;6.40;99.90;;;;;;5052838;28;20380;-85
2023/04/30 02:29:49;;;;;;;8.25;4.07;;;6.40;99.90;;;;;;5064395;28;20036;-85
2023/04/30 02:32:15;;;;;;;7.60;2.80;;;6.40;99.90;;;;;;5056421;28;20032;-85
2023/04/30 02:34:41;;;;;;;9.73;3.25;;;6.30;99.90;;;;;;5058142;28;20497;-86
2023/04/30 02:37:07;;;;;;;6.60;2.55;;;6.30;99.90;;;;;;5052900;28;20405;-85
2023/04/30 02:39:33;;;;;;;5.45;1.90;;;6.30;99.90;;;;;;5051734;28;20040;-85
2023/04/30 02:41:58;;;;;;;10.18;2.60;;;6.30;99.90;;;;;;5052979;28;20041;-86
2023/04/30 02:44:24;;;;;;;8.75;3.22;;;6.20;99.90;;;;;;5036202;28;20506;-85
2023/04/30 02:46:50;;;;;;;7.25;2.78;;;6.20;99.90;;;;;;5050609;28;20044;-86
2023/04/30 02:49:16;;;;;;;7.32;2.58;;;6.20;99.90;;;;;;5073115;28;20047;-86
2023/04/30 02:51:41;;;;;;;7.03;1.95;;;6.10;99.90;;;;;;5072183;28;20036;-86
2023/04/30 02:54:07;;;;;;;6.25;1.60;;;6.00;99.90;;;;;;5073239;28;20043;-86
2023/04/30 02:56:33;;;;;;;9.85;3.53;;;6.00;99.90;;;;;;5073138;28;20036;-85
2023/04/30 02:58:59;;;;;;;9.88;3.08;;;6.00;99.90;;;;;;5052871;28;20103;-86
2023/04/30 03:01:25;;;;;;;8.52;3.38;;;6.00;99.90;;;;;;5070149;28;20517;-85
2023/04/30 03:03:50;;;;;;;9.23;3.10;;;6.00;99.90;;;;;;5073142;28;20051;-85
2023/04/30 03:06:16;;;;;;;9.85;3.95;;;6.00;99.90;;;;;;5056593;28;20126;-86
2023/04/30 03:08:42;;;;;;;9.15;3.60;;;6.00;99.90;;;;;;5056749;28;20036;-85
2023/04/30 03:11:07;;;;;;;11.48;3.25;;;6.00;99.90;;;;;;5072956;28;20493;-85
2023/04/30 03:13:33;;;;;;;8.27;3.25;;;6.00;99.90;;;;;;5073346;28;20038;-86
2023/04/30 03:16:00;;;;;;;9.73;4.30;;;6.00;99.90;;;;;;5072521;28;20032;-86
2023/04/30 03:18:29;;;;;;;7.05;3.20;;;6.00;99.90;;;;;;5072680;28;20050;-85
2023/04/30 03:20:54;;;;;;;9.13;3.72;;;6.00;99.90;;;;;;5046499;28;20039;-86
2023/04/30 03:23:20;;;;;;;11.10;3.45;;;6.00;99.90;;;;;;5072703;28;20048;-86
2023/04/30 03:25:46;;;;;;;11.02;4.88;;;6.00;99.90;;;;;;5063831;28;20079;-86
2023/04/30 03:28:12;;;;;;;9.93;4.25;;;6.00;99.90;;;;;;5071836;28;20119;-85
2023/04/30 03:30:38;;;;;;;8.70;3.70;;;5.90;99.90;;;;;;5072683;28;20103;-86
2023/04/30 03:33:06;;;;;;;7.53;3.10;;;6.00;99.90;;;;;;5071368;28;20028;-85
2023/04/30 03:35:33;;;;;;;10.35;3.15;;;5.90;99.90;;;;;;5055326;28;20028;-86
2023/04/30 03:37:59;;;;;;;7.15;2.80;;;5.90;99.90;;;;;;5072119;28;20040;-85
2023/04/30 03:40:25;;;;;;;8.70;3.17;;;5.90;99.90;;;;;;5054487;28;20111;-86
2023/04/30 03:42:50;;;;;;;7.85;3.05;;;5.90;99.90;;;;;;5072802;28;20128;-85
2023/04/30 03:45:16;;;;;;;5.90;2.65;;;5.90;99.90;;;;;;5046390;28;20039;-86
2023/04/30 03:47:42;;;;;;;7.65;2.85;;;5.90;99.90;;;;;;5055725;28;20036;-85
2023/04/30 03:50:08;;;;;;;10.23;3.58;;;5.80;99.90;;;;;;5071584;28;20477;-86
2023/04/30 03:52:35;;;;;;;8.52;3.20;;;5.80;99.90;;;;;;5090012;28;20105;-85
2023/04/30 03:55:05;;;;;;;9.43;3.45;;;5.80;99.90;;;;;;5055092;28;20157;-85
2023/04/30 03:57:31;;;;;;;8.20;2.83;;;5.70;99.90;;;;;;5057310;28;20126;-86
2023/04/30 03:59:57;;;;;;;9.95;3.30;;;5.70;99.90;;;;;;5053100;28;20043;-86
2023/04/30 04:02:23;;;;;;;8.05;3.00;;;5.70;99.90;;;;;;5054988;28;20130;-85
2023/04/30 04:04:50;;;;;;;5.80;2.42;;;5.70;99.90;;;;;;5072336;28;20702;-86
2023/04/30 04:07:15;;;;;;;6.25;2.00;;;5.60;99.90;;;;;;5072145;28;20040;-86
2023/04/30 04:09:41;;;;;;;6.88;2.58;;;5.60;99.90;;;;;;5053309;28;20052;-85
2023/04/30 04:12:06;;;;;;;7.55;2.90;;;5.50;99.90;;;;;;5051510;28;20055;-86
2023/04/30 04:14:32;;;;;;;6.43;2.20;;;5.50;99.90;;;;;;5051280;28;20512;-85
2023/04/30 04:16:58;;;;;;;5.53;2.45;;;5.50;99.90;;;;;;5051564;28;20040;-86
2023/04/30 04:19:25;;;;;;;7.13;2.55;;;5.40;99.90;;;;;;5056817;28;20082;-85
2023/04/30 04:21:51;;;;;;;5.93;2.33;;;5.40;99.90;;;;;;5037184;28;20040;-86
2023/04/30 04:24:16;;;;;;;5.45;2.55;;;5.30;99.90;;;;;;5037544;28;20046;-86
2023/04/30 04:26:42;;;;;;;5.97;2.38;;;5.30;99.90;;;;;;5071308;28;20075;-85
2023/04/30 04:29:09;;;;;;;5.70;2.63;;;5.20;99.90;;;;;;5053824;28;20028;-86
2023/04/30 04:31:34;;;;;;;6.15;2.40;;;5.20;99.90;;;;;;5063437;28;20055;-86
2023/04/30 04:34:03;;;;;;;6.85;2.40;;;5.20;99.90;;;;;;5071668;28;20048;-85
2023/04/30 04:36:29;;;;;;;10.23;3.33;;;5.20;99.90;;;;;;5054109;28;20085;-86
2023/04/30 04:39:01;;;;;;;7.63;2.90;;;5.20;99.90;;;;;;5073150;28;20049;-86
2023/04/30 04:41:31;;;;;;;9.23;3.27;;;5.20;99.90;;;;;;5048127;28;20090;-85
2023/04/30 04:44:00;;;;;;;7.60;3.35;;;5.20;99.90;;;;;;5055228;28;20863;-85
2023/04/30 04:46:27;;;;;;;8.63;3.38;;;5.20;99.90;;;;;;5061101;28;20047;-85
2023/04/30 04:48:53;;;;;;;10.07;4.10;;;5.30;99.90;;;;;;5074983;28;20044;-85
2023/04/30 04:51:18;;;;;;;9.63;3.92;;;5.40;99.90;;;;;;5057124;28;20123;-85
2023/04/30 04:53:44;;;;;;;11.55;4.35;;;5.40;99.90;;;;;;5057799;28;20074;-85
2023/04/30 04:56:10;;;;;;;9.68;4.38;;;5.50;99.90;;;;;;5074997;28;20542;-85
2023/04/30 04:58:35;;;;;;;11.45;4.13;;;5.50;99.90;;;;;;5057840;28;20036;-86
2023/04/30 05:01:04;;;;;;;9.38;3.88;;;5.60;99.90;;;;;;5040175;28;20512;-86
2023/04/30 05:03:31;;;;;;;9.82;4.00;;;5.70;99.90;;;;;;5037926;28;20040;-86
2023/04/30 05:05:57;;;;;;;11.32;4.30;;;5.70;99.90;;;;;;5062491;28;20048;-85
2023/04/30 05:08:23;;;;;;;9.73;4.72;;;5.80;99.90;;;;;;5054525;28;20040;-85
2023/04/30 05:10:49;;;;;;;12.70;4.50;;;5.80;99.90;;;;;;5037305;28;20558;-85
2023/04/30 05:13:15;;;;;;;9.63;4.07;;;5.90;99.90;;;;;;5066573;28;20375;-85
2023/04/30 05:15:41;;;;;;;10.85;4.72;;;5.90;99.90;;;;;;5057468;28;20539;-86
2023/04/30 05:18:06;;;;;;;10.50;4.38;;;6.00;99.90;;;;;;5074177;28;20036;-86
2023/04/30 05:20:32;;;;;;;10.98;4.60;;;6.00;99.90;;;;;;5074130;28;20047;-85
2023/04/30 05:22:58;;;;;;;12.23;4.63;;;6.10;99.90;;;;;;5072648;28;20047;-86
2023/04/30 05:25:23;;;;;;;10.20;5.00;;;6.20;99.90;;;;;;5047301;28;20047;-86
2023/04/30 05:27:49;;;;;;;12.57;5.18;;;6.20;99.90;;;;;;5073304;28;20401;-86
2023/04/30 05:30:14;;;;;;;10.00;5.55;;;6.40;99.90;;;;;;5056913;28;20124;-86
2023/04/30 05:32:41;;;;;;;11.43;5.45;;;6.40;99.90;;;;;;5053356;28;20039;-86
2023/04/30 05:35:07;;;;;;;11.52;5.55;;;6.50;99.90;;;;;;5052522;28;20115;-85
2023/04/30 05:37:33;;;;;;;10.07;4.80;;;6.60;99.90;;;;;;5046834;28;20036;-85
2023/04/30 05:39:58;;;;;;;16.75;6.65;;;6.70;99.90;;;;;;5073082;28;20040;-85
2023/04/30 05:42:24;;;;;;;10.95;5.68;;;6.80;99.90;;;;;;5049556;28;20127;-86
2023/04/30 05:44:50;;;;;;;15.55;5.55;;;6.90;99.90;;;;;;5051129;28;20043;-85
2023/04/30 05:47:15;;;;;;;16.20;5.90;;;7.00;99.90;;;;;;5051456;28;20045;-85
2023/04/30 05:49:41;;;;;;;13.57;5.63;;;7.10;99.90;;;;;;5050252;28;20040;-85
2023/04/30 05:52:06;;;;;;;13.93;5.25;;;7.10;99.90;;;;;;5051932;28;20482;-86
2023/04/30 05:54:32;;;;;;;17.23;5.75;;;7.20;99.90;;;;;;5041189;28;20106;-86
2023/04/30 05:56:58;;;;;;;14.20;4.50;;;7.30;99.90;;;;;;5052640;28;20043;-86
2023/04/30 05:59:24;;;;;;;14.13;5.05;;;7.40;99.90;;;;;;5056653;28;20067;-86
2023/04/30 06:01:50;;;;;;;10.05;5.05;;;7.50;99.90;;;;;;5047091;28;20036;-86
2023/04/30 06:04:16;;;;;;;11.68;4.40;;;7.50;99.90;;;;;;5035689;28;20482;-86
2023/04/30 06:06:42;;;;;;;10.18;4.55;;;7.60;99.90;;;;;;5035450;28;20052;-86
2023/04/30 06:09:07;;;;;;;12.43;5.22;;;7.70;99.90;;;;;;5060619;28;20037;-86
2023/04/30 06:11:33;;;;;;;10.70;4.10;;;7.80;99.90;;;;;;5035386;28;20089;-85
2023/04/30 06:13:59;;;;;;;13.60;4.20;;;7.90;99.90;;;;;;5050642;28;20040;-86
2023/04/30 06:16:25;;;;;;;10.52;3.30;;;7.90;99.90;;;;;;5055614;28;20059;-86
2023/04/30 06:18:50;;;;;;;12.32;3.33;;;8.00;99.90;;;;;;5067339;28;20041;-86
2023/04/30 06:21:16;;;;;;;13.63;4.00;;;8.10;99.90;;;;;;5051359;28;20036;-86
2023/04/30 06:23:41;;;;;;;11.70;4.07;;;8.20;99.90;;;;;;5055920;28;20035;-86
2023/04/30 06:26:07;;;;;;;13.70;3.65;;;8.30;99.90;;;;;;5062952;28;20418;-86
2023/04/30 06:28:33;;;;;;;10.38;3.55;;;8.30;99.90;;;;;;5052874;28;20072;-86
2023/04/30 06:30:58;;;;;;;11.48;3.30;;;8.40;99.90;;;;;;5057390;28;20117;-86
2023/04/30 06:33:24;;;;;;;15.52;3.53;;;8.50;99.90;;;;;;5071680;28;20028;-86
2023/04/30 06:35:53;;;;;;;9.93;2.78;;;8.60;99.90;;;;;;5072081;28;20020;-86
2023/04/30 06:38:19;;;;;;;10.70;3.20;;;8.70;99.90;;;;;;5063548;28;20047;-86
2023/04/30 06:40:44;;;;;;;9.43;2.67;;;8.70;99.90;;;;;;5054450;28;20032;-87
2023/04/30 06:43:10;;;;;;;9.68;3.50;;;8.80;99.90;;;;;;5070993;28;20032;-86
2023/04/30 06:45:36;;;;;;;12.27;3.67;;;8.90;99.90;;;;;;5069633;28;20055;-86
2023/04/30 06:48:02;;;;;;;7.97;3.25;;;9.00;99.90;;;;;;5071811;28;20074;-86
2023/04/30 06:50:27;;;;;;;11.82;3.03;;;9.10;99.90;;;;;;5069964;28;20399;-87
2023/04/30 06:52:53;;;;;;;11.35;3.60;;;9.20;99.90;;;;;;5071750;28;20035;-87
2023/04/30 06:55:19;;;;;;;12.73;3.25;;;9.20;99.90;;;;;;5071644;28;20043;-87
2023/04/30 06:57:44;;;;;;;14.25;3.83;;;9.30;99.90;;;;;;5070605;28;20111;-87
2023/04/30 07:00:11;;;;;;;10.68;3.28;;;9.40;99.90;;;;;;5053744;28;20412;-86
2023/04/30 07:02:37;;;;;;;10.63;3.22;;;9.40;99.90;;;;;;5052881;28;20036;-87
2023/04/30 07:05:03;;;;;;;11.98;3.35;;;9.50;99.90;;;;;;5053606;28;20489;-87
2023/04/30 07:07:28;;;;;;;15.30;3.40;;;9.60;99.90;;;;;;5070250;28;20050;-86
2023/04/30 07:09:54;;;;;;;15.23;2.88;;;9.70;99.90;;;;;;5057126;28;20115;-87
2023/04/30 07:12:21;;;;;;;8.85;3.08;;;9.70;99.90;;;;;;5065213;28;20046;-87
2023/04/30 07:14:46;;;;;;;12.00;3.30;;;9.80;99.90;;;;;;5046461;28;20547;-87
2023/04/30 07:17:12;;;;;;;14.00;3.42;;;9.90;99.90;;;;;;5056578;28;20044;-86
2023/04/30 07:19:37;;;;;;;14.05;3.13;;;10.00;99.90;;;;;;5082433;28;20043;-86
2023/04/30 07:22:03;;;;;;;11.25;3.58;;;10.00;99.90;;;;;;5053690;28;20036;-86
2023/04/30 07:24:29;;;;;;;11.70;3.03;;;10.10;99.90;;;;;;5071573;28;20417;-87
2023/04/30 07:26:54;;;;;;;10.30;2.70;;;10.10;99.90;;;;;;5045741;28;20101;-86
2023/04/30 07:29:20;;;;;;;16.35;4.03;;;10.20;99.90;;;;;;5062172;28;20047;-86
2023/04/30 07:31:46;;;;;;;10.95;3.15;;;10.30;99.90;;;;;;5070445;28;20025;-86
2023/04/30 07:34:12;;;;;;;12.57;4.03;;;10.30;99.90;;;;;;5040181;28;20570;-87
2023/04/30 07:36:38;;;;;;;17.27;3.53;;;10.40;99.90;;;;;;5051895;28;20044;-87
2023/04/30 07:39:04;;;;;;;9.25;2.55;;;10.40;99.90;;;;;;5043100;28;20033;-87
2023/04/30 07:41:30;;;;;;;10.07;3.28;;;10.50;99.90;;;;;;5051180;28;20581;-86
2023/04/30 07:43:56;;;;;;;10.98;3.47;;;10.50;99.90;;;;;;5057663;28;20043;-86
2023/04/30 07:46:24;;;;;;;8.40;2.58;;;10.60;99.90;;;;;;5071401;28;20051;-87
2023/04/30 07:48:50;;;;;;;11.02;3.20;;;10.70;99.90;;;;;;5071290;28;20075;-87
2023/04/30 07:51:16;;;;;;;17.02;4.05;;;10.80;99.90;;;;;;5070878;28;20063;-87
2023/04/30 07:53:41;;;;;;;11.05;2.85;;;10.90;99.90;;;;;;5054567;28;20036;-86
2023/04/30 07:56:07;;;;;;;9.40;2.60;;;10.90;99.90;;;;;;5071210;28;20043;-86
2023/04/30 07:58:33;;;;;;;7.55;2.67;;;11.10;99.90;;;;;;5066626;28;20497;-87
2023/04/30 08:00:58;;;;;;;8.57;2.65;;;11.20;99.90;;;;;;5053704;28;20516;-87
2023/04/30 08:03:24;;;;;;;9.85;2.85;;;11.20;99.90;;;;;;5062804;28;20044;-87
2023/04/30 08:05:51;;;;;;;10.40;2.20;;;11.30;99.90;;;;;;5071818;28;20497;-86
2023/04/30 08:08:16;;;;;;;10.75;2.50;;;11.40;99.90;;;;;;5052120;28;20028;-86
2023/04/30 08:10:42;;;;;;;9.57;2.55;;;11.40;99.90;;;;;;5070748;28;20032;-86
2023/04/30 08:13:08;;;;;;;12.45;3.20;;;11.50;99.90;;;;;;5071291;28;20032;-87
2023/04/30 08:15:33;;;;;;;10.65;3.25;;;11.60;99.90;;;;;;5071770;28;20123;-87
2023/04/30 08:17:59;;;;;;;10.93;2.60;;;11.60;99.90;;;;;;5074361;28;20052;-87
2023/04/30 08:20:25;;;;;;;8.63;2.97;;;11.70;99.90;;;;;;5073885;28;20503;-86
2023/04/30 08:22:50;;;;;;;15.95;4.20;;;11.80;99.90;;;;;;5057126;28;20032;-87
2023/04/30 08:25:16;;;;;;;12.50;4.05;;;11.90;99.90;;;;;;5056883;28;20040;-87
2023/04/30 08:27:42;;;;;;;12.30;3.15;;;11.90;99.90;;;;;;5069934;28;20452;-87
2023/04/30 08:30:08;;;;;;;10.85;3.13;;;12.00;99.90;;;;;;5056844;28;20036;-87
2023/04/30 08:32:35;;;;;;;9.55;3.35;;;12.10;99.90;;;;;;5072859;28;20067;-87
2023/04/30 08:35:05;;;;;;;13.98;3.20;;;12.10;99.90;;;;;;5056298;28;20032;-87
2023/04/30 08:37:30;;;;;;;10.57;2.83;;;12.20;99.90;;;;;;5056476;28;20393;-87
2023/04/30 08:39:56;;;;;;;9.68;2.65;;;12.20;99.90;;;;;;5070210;28;20053;-87
2023/04/30 08:42:25;;;;;;;9.32;2.65;;;12.20;99.70;;;;;;5072077;28;20078;-87
2023/04/30 08:44:50;;;;;;;14.80;3.00;;;12.30;98.80;;;;;;5070980;28;20135;-87
2023/04/30 08:47:17;;;;;;;11.07;2.70;;;12.40;99.90;;;;;;5073074;28;20115;-86
2023/04/30 08:49:44;;;;;;;11.90;3.28;;;12.50;99.50;;;;;;5072496;28;20043;-87
2023/04/30 08:52:10;;;;;;;10.80;3.03;;;12.60;98.50;;;;;;5058064;28;20033;-87
2023/04/30 08:54:36;;;;;;;9.60;2.90;;;12.60;97.70;;;;;;5058654;28;20458;-87
2023/04/30 08:57:03;;;;;;;8.98;2.50;;;12.70;98.50;;;;;;5056769;28;20039;-87
2023/04/30 08:59:29;;;;;;;9.73;2.83;;;12.80;98.30;;;;;;5070731;28;20479;-87
2023/04/30 09:01:55;;;;;;;11.38;2.85;;;12.90;97.00;;;;;;5072852;28;20150;-87
2023/04/30 09:04:20;;;;;;;12.32;4.25;;;13.00;96.80;;;;;;5055859;28;20508;-87
2023/04/30 09:06:46;;;;;;;11.23;3.13;;;13.10;93.10;;;;;;5053475;28;20447;-87
2023/04/30 09:09:14;;;;;;;11.00;2.72;;;13.20;92.60;;;;;;5056287;28;20040;-87
2023/04/30 09:11:39;;;;;;;10.30;2.80;;;13.20;93.30;;;;;;5054406;28;20517;-88
2023/04/30 09:14:05;;;;;;;10.75;3.00;;;13.30;93.50;;;;;;5056171;28;20063;-87
2023/04/30 09:16:45;;;;;;;13.65;4.57;;;13.40;94.50;;;;;;5072793;28;20538;-87
2023/04/30 09:19:25;;;;;;;12.95;3.72;;;13.60;92.70;;;;;;5068900;28;20044;-87
2023/04/30 09:21:50;;;;;;;12.68;3.75;;;13.70;90.80;;;;;;5056277;28;20051;-87
2023/04/30 09:24:16;;;;;;;11.63;3.80;;;13.80;90.00;;;;;;5073026;28;20036;-87
2023/04/30 09:26:42;;;;;;;13.57;4.10;;;13.90;89.10;;;;;;5071820;28;20405;-88
2023/04/30 09:29:09;;;;;;;8.75;3.05;;;14.10;88.90;;;;;;5072687;28;20036;-87
2023/04/30 09:31:39;;;;;;;13.18;4.10;;;14.10;88.50;;;;;;5073098;28;20523;-87
2023/04/30 09:34:05;;;;;;;10.85;3.60;;;14.10;87.00;;;;;;5073765;28;20046;-88
2023/04/30 09:36:31;;;;;;;9.18;3.55;;;14.30;84.10;;;;;;5072053;28;20371;-88
2023/04/30 09:39:12;;;;;;;10.45;3.78;;;14.40;82.00;;;;;;5073821;28;20473;-87
2023/04/30 09:41:38;;;;;;;10.20;2.45;;;14.40;79.80;;;;;;5052331;28;20443;-87
2023/04/30 09:44:04;;;;;;;8.05;2.30;;;14.40;82.10;;;;;;5073065;28;20040;-88
2023/04/30 09:46:36;;;;;;;11.25;2.90;;;14.50;83.90;;;;;;5056157;28;20108;-87
2023/04/30 09:49:02;;;;;;;10.90;2.92;;;14.60;83.90;;;;;;5070742;28;20042;-87
2023/04/30 09:51:28;;;;;;;12.45;3.85;;;14.70;84.00;;;;;;5056139;28;20081;-88
2023/04/30 09:53:57;;;;;;;9.52;2.75;;;14.80;81.70;;;;;;5070846;28;20024;-88
2023/04/30 09:56:27;;;;;;;12.45;4.13;;;14.80;81.20;;;;;;5056509;28;20036;-88
2023/04/30 09:58:55;;;;;;;11.30;3.63;;;14.90;79.40;;;;;;5071483;28;20089;-87
2023/04/30 10:01:22;;;;;;;10.75;3.15;;;15.00;79.60;;;;;;5065915;28;20042;-87
2023/04/30 10:03:48;;;;;;;8.45;2.95;;;15.00;79.10;;;;;;5054308;28;20497;-87
2023/04/30 10:06:17;;;;;;;10.00;3.50;;;15.00;79.80;;;;;;5050456;28;20071;-87
2023/04/30 10:08:45;;;;;;;11.63;3.60;;;15.10;78.80;;;;;;5051992;28;20527;-87
2023/04/30 10:11:15;;;;;;;9.43;2.88;;;15.20;78.00;;;;;;5051391;28;20148;-87
2023/04/30 10:14:07;;;;;;;12.00;2.78;;;15.20;78.20;;;;;;5070125;28;20085;-87
2023/04/30 10:16:36;;;;;;;11.55;3.22;;;15.30;77.80;;;;;;5056081;28;20488;-87
2023/04/30 10:19:30;;;;;;;9.73;3.45;;;15.40;78.50;;;;;;5060921;28;20037;-87
2023/04/30 10:21:56;;;;;;;8.93;3.65;;;15.60;76.80;;;;;;5049886;28;20094;-87
2023/04/30 10:24:22;;;;;;;9.15;2.88;;;15.70;77.40;;;;;;5035282;28;20036;-87
2023/04/30 10:26:49;;;;;;;9.77;3.60;;;15.90;77.00;;;;;;5064213;28;20036;-87
2023/04/30 10:29:16;;;;;;;9.98;3.40;;;16.00;76.00;;;;;;5072602;28;20046;-87
2023/04/30 10:31:48;;;;;;;10.50;2.60;;;16.10;75.00;;;;;;5055563;28;20044;-87
2023/04/30 10:34:38;;;;;;;10.88;3.40;;;16.00;75.60;;;;;;5053745;28;20036;-87
2023/04/30 10:37:17;;;;;;;9.48;3.20;;;16.10;73.20;;;;;;5055527;28;20435;-87
2023/04/30 10:39:43;;;;;;;11.32;4.00;;;16.20;73.50;;;;;;5054590;28;20036;-87
2023/04/30 10:42:10;;;;;;;10.18;3.40;;;16.30;74.00;;;;;;5072307;28;20119;-87
2023/04/30 10:44:36;;;;;;;10.05;3.30;;;16.40;73.70;;;;;;5055447;28;20661;-88
2023/04/30 10:47:04;;;;;;;9.35;3.25;;;16.50;74.30;;;;;;5055908;28;20405;-87
2023/04/30 10:49:30;;;;;;;11.38;3.53;;;16.60;73.50;;;;;;5072263;28;20032;-87
2023/04/30 10:51:59;;;;;;;8.75;2.88;;;16.70;73.50;;;;;;5072549;28;20046;-88
2023/04/30 10:54:33;;;;;;;9.85;3.15;;;16.70;73.00;;;;;;5072891;28;20036;-87
2023/04/30 10:57:13;;;;;;;11.77;3.35;;;16.80;72.10;;;;;;5047298;28;20097;-87
2023/04/30 10:59:50;;;;;;;11.48;3.58;;;16.90;71.70;;;;;;5054653;28;20047;-87
2023/04/30 11:02:18;;;;;;;9.88;3.22;;;17.00;74.00;;;;;;5071706;28;20032;-87
2023/04/30 11:05:10;;;;;;;9.95;2.75;;;17.00;71.20;;;;;;5072112;28;20036;-88
2023/04/30 11:07:37;;;;;;;10.07;3.20;;;17.20;70.70;;;;;;5065425;28;20037;-88
2023/04/30 11:10:07;;;;;;;9.43;3.00;;;17.30;70.40;;;;;;5069517;28;20285;-87
2023/04/30 11:12:32;;;;;;;10.50;2.70;;;17.50;70.80;;;;;;5055791;28;20044;-87
2023/04/30 11:15:18;;;;;;;9.52;3.10;;;17.70;70.30;;;;;;5059660;28;20040;-88
2023/04/30 11:17:45;;;;;;;10.65;3.40;;;17.80;67.60;;;;;;5056952;28;20032;-88
2023/04/30 11:20:24;;;;;;;8.57;2.63;;;17.80;68.20;;;;;;5050242;28;20043;-88
2023/04/30 11:23:08;;;;;;;8.52;2.72;;;17.90;68.50;;;;;;5056120;28;20123;-87
2023/04/30 11:25:46;;;;;;;8.50;2.80;;;18.10;69.60;;;;;;5047877;28;20051;-87
2023/04/30 11:28:23;;;;;;;9.77;2.63;;;18.10;68.60;;;;;;5052152;28;20538;-88
2023/04/30 11:30:53;;;;;;;8.77;2.60;;;18.20;67.30;;;;;;5035407;28;20043;-88
2023/04/30 11:33:19;;;;;;;10.88;2.83;;;18.30;67.70;;;;;;5064712;28;20556;-87
2023/04/30 11:35:45;;;;;;;10.02;2.90;;;18.40;67.10;;;;;;5055818;28;20118;-88
2023/04/30 11:38:16;;;;;;;8.27;2.90;;;18.50;67.80;;;;;;5054326;28;20119;-88
2023/04/30 11:40:43;;;;;;;7.95;2.53;;;18.60;65.90;;;;;;5072140;28;20040;-87
2023/04/30 11:43:20;;;;;;;7.30;2.40;;;18.70;65.40;;;;;;5054935;28;20401;-87
2023/04/30 11:46:00;;;;;;;7.82;2.28;;;18.80;65.10;;;;;;5068229;28;20512;-88
2023/04/30 11:48:33;;;;;;;9.35;2.70;;;18.90;66.60;;;;;;5072985;28;20040;-87
2023/04/30 11:51:01;;;;;;;9.73;2.78;;;19.00;64.60;;;;;;5066943;28;20084;-87
2023/04/30 11:53:28;;;;;;;8.75;3.30;;;19.00;64.40;;;;;;5076738;28;20081;-87
2023/04/30 11:55:54;;;;;;;8.88;3.15;;;19.10;66.30;;;;;;5050000;28;20041;-87
2023/04/30 11:58:21;;;;;;;10.00;2.88;;;19.40;65.60;;;;;;5076529;28;20032;-87
2023/04/30 12:00:47;;;;;;;10.63;2.80;;;19.40;65.10;;;;;;5058503;28;20036;-87
2023/04/30 12:03:16;;;;;;;9.07;3.00;;;19.50;64.00;;;;;;5058433;28;20533;-87
2023/04/30 12:05:41;;;;;;;10.85;3.17;;;19.60;64.90;;;;;;5058836;28;20433;-88
2023/04/30 12:08:08;;;;;;;8.13;2.50;;;19.80;65.30;;;;;;5075143;28;20036;-88
2023/04/30 12:10:34;;;;;;;6.68;2.40;;;20.00;64.30;;;;;;5074527;28;20032;-88
2023/04/30 12:13:01;;;;;;;6.30;2.28;;;20.00;63.70;;;;;;5075420;28;20371;-88
2023/04/30 12:15:27;;;;;;;7.60;2.30;;;20.10;62.70;;;;;;5073764;28;20067;-88
2023/04/30 12:17:58;;;;;;;9.07;2.50;;;20.20;64.00;;;;;;5075462;28;20044;-87
2023/04/30 12:20:27;;;;;;;9.27;2.67;;;20.30;63.80;;;;;;5075635;28;20052;-87
2023/04/30 12:22:53;;;;;;;6.95;2.05;;;20.50;63.40;;;;;;5050608;28;20051;-88
2023/04/30 12:25:20;;;;;;;7.07;2.25;;;20.50;62.40;;;;;;5059505;28;20040;-88
2023/04/30 12:27:51;;;;;;;7.22;2.08;;;20.70;62.70;;;;;;5058405;28;20036;-88
2023/04/30 12:30:25;;;;;;;6.72;2.05;;;20.80;62.70;;;;;;5075157;28;20043;-88
2023/04/30 12:32:52;;;;;;;5.97;2.20;;;21.00;62.60;;;;;;5074263;28;20036;-88
2023/04/30 12:35:20;;;;;;;7.20;2.20;;;21.10;61.40;;;;;;5072007;28;20028;-88
2023/04/30 12:37:51;;;;;;;6.60;2.25;;;21.20;61.40;;;;;;5075518;28;20039;-88
2023/04/30 12:40:21;;;;;;;7.30;2.30;;;21.40;60.40;;;;;;5071883;28;20040;-88
2023/04/30 12:42:47;;;;;;;9.18;2.50;;;21.50;60.00;;;;;;5075520;28;20401;-88
2023/04/30 12:45:33;;;;;;;7.97;2.47;;;21.60;59.60;;;;;;5057723;28;20044;-88
2023/04/30 12:47:59;;;;;;;6.65;2.00;;;21.70;59.90;;;;;;5066511;28;20188;-88
2023/04/30 12:50:25;;;;;;;9.18;2.60;;;21.60;58.40;;;;;;5084025;28;20088;-87
2023/04/30 12:52:51;;;;;;;8.65;2.30;;;21.70;57.70;;;;;;5055204;28;20046;-88